sensor_id;sensor_type;location;lat;lon;timestamp;P1;durP1;ratioP1;P2;durP2;ratioP2
56045;SDS011;41913;51.030;3.706;2024-02-26T00:01:42;0.63;;;0.63;;
56045;SDS011;41913;51.030;3.706;2024-02-26T00:04:11;0.75;;;0.75;;
56045;SDS011;41913;51.030;3.706;2024-02-26T00:06:38;0.82;;;0.70;;
56045;SDS011;41913;51.030;3.706;2024-02-26T00:09:06;0.70;;;0.70;;
56045;SDS011;41913;51.030;3.706;2024-02-26T00:11:32;1.58;;;0.90;;
56045;SDS011;41913;51.030;3.706;2024-02-26T00:13:58;3.50;;;0.80;;
56045;SDS011;41913;51.030;3.706;2024-02-26T00:16:25;0.75;;;0.75;;
56045;SDS011;41913;51.030;3.706;2024-02-26T00:18:50;0.70;;;0.70;;
56045;SDS011;41913;51.030;3.706;2024-02-26T00:21:16;0.52;;;0.47;;
56045;SDS011;41913;51.030;3.706;2024-02-26T00:23:42;0.93;;;0.85;;
56045;SDS011;41913;51.030;3.706;2024-02-26T00:26:07;2.67;;;0.73;;
56045;SDS011;41913;51.030;3.706;2024-02-26T00:28:34;0.73;;;0.63;;
56045;SDS011;41913;51.030;3.706;2024-02-26T00:30:59;0.82;;;0.77;;
56045;SDS011;41913;51.030;3.706;2024-02-26T00:33:25;0.80;;;0.80;;
56045;SDS011;41913;51.030;3.706;2024-02-26T00:35:51;0.88;;;0.75;;
56045;SDS011;41913;51.030;3.706;2024-02-26T00:38:16;0.60;;;0.60;;
56045;SDS011;41913;51.030;3.706;2024-02-26T00:40:42;0.47;;;0.47;;
56045;SDS011;41913;51.030;3.706;2024-02-26T00:43:08;0.77;;;0.60;;
56045;SDS011;41913;51.030;3.706;2024-02-26T00:45:33;0.60;;;0.60;;
56045;SDS011;41913;51.030;3.706;2024-02-26T00:47:59;1.63;;;0.77;;
56045;SDS011;41913;51.030;3.706;2024-02-26T00:50:34;0.93;;;0.68;;
56045;SDS011;41913;51.030;3.706;2024-02-26T00:53:00;0.80;;;0.80;;
56045;SDS011;41913;51.030;3.706;2024-02-26T00:55:26;0.57;;;0.57;;
56045;SDS011;41913;51.030;3.706;2024-02-26T00:57:52;0.45;;;0.45;;
56045;SDS011;41913;51.030;3.706;2024-02-26T01:00:18;1.58;;;0.70;;
56045;SDS011;41913;51.030;3.706;2024-02-26T01:02:44;0.80;;;0.80;;
56045;SDS011;41913;51.030;3.706;2024-02-26T01:05:13;0.63;;;0.60;;
56045;SDS011;41913;51.030;3.706;2024-02-26T01:07:39;0.80;;;0.80;;
56045;SDS011;41913;51.030;3.706;2024-02-26T01:10:05;0.63;;;0.60;;
56045;SDS011;41913;51.030;3.706;2024-02-26T01:12:34;0.60;;;0.60;;
56045;SDS011;41913;51.030;3.706;2024-02-26T01:15:04;0.40;;;0.40;;
56045;SDS011;41913;51.030;3.706;2024-02-26T01:17:30;1.83;;;0.80;;
56045;SDS011;41913;51.030;3.706;2024-02-26T01:19:56;1.58;;;0.70;;
56045;SDS011;41913;51.030;3.706;2024-02-26T01:22:21;0.55;;;0.55;;
56045;SDS011;41913;51.030;3.706;2024-02-26T01:24:47;0.40;;;0.40;;
56045;SDS011;41913;51.030;3.706;2024-02-26T01:27:13;0.47;;;0.47;;
56045;SDS011;41913;51.030;3.706;2024-02-26T01:29:41;0.90;;;0.90;;
56045;SDS011;41913;51.030;3.706;2024-02-26T01:32:07;2.00;;;0.82;;
56045;SDS011;41913;51.030;3.706;2024-02-26T01:34:33;0.70;;;0.70;;
56045;SDS011;41913;51.030;3.706;2024-02-26T01:36:59;1.55;;;0.40;;
56045;SDS011;41913;51.030;3.706;2024-02-26T01:39:25;0.50;;;0.50;;
56045;SDS011;41913;51.030;3.706;2024-02-26T01:41:52;0.50;;;0.50;;
56045;SDS011;41913;51.030;3.706;2024-02-26T01:44:18;0.60;;;0.60;;
56045;SDS011;41913;51.030;3.706;2024-02-26T01:46:44;0.70;;;0.60;;
56045;SDS011;41913;51.030;3.706;2024-02-26T01:49:11;0.30;;;0.30;;
56045;SDS011;41913;51.030;3.706;2024-02-26T01:51:38;0.60;;;0.60;;
56045;SDS011;41913;51.030;3.706;2024-02-26T01:54:06;0.47;;;0.38;;
56045;SDS011;41913;51.030;3.706;2024-02-26T01:56:33;0.63;;;0.63;;
56045;SDS011;41913;51.030;3.706;2024-02-26T01:59:01;0.60;;;0.60;;
56045;SDS011;41913;51.030;3.706;2024-02-26T02:01:27;0.50;;;0.50;;
56045;SDS011;41913;51.030;3.706;2024-02-26T02:03:58;0.55;;;0.55;;
56045;SDS011;41913;51.030;3.706;2024-02-26T02:06:25;0.50;;;0.50;;
56045;SDS011;41913;51.030;3.706;2024-02-26T02:08:53;0.60;;;0.60;;
56045;SDS011;41913;51.030;3.706;2024-02-26T02:11:20;1.55;;;0.60;;
56045;SDS011;41913;51.030;3.706;2024-02-26T02:13:46;2.10;;;0.73;;
56045;SDS011;41913;51.030;3.706;2024-02-26T02:16:12;0.40;;;0.40;;
56045;SDS011;41913;51.030;3.706;2024-02-26T02:18:38;0.85;;;0.50;;
56045;SDS011;41913;51.030;3.706;2024-02-26T02:21:03;0.60;;;0.50;;
56045;SDS011;41913;51.030;3.706;2024-02-26T02:23:29;1.90;;;0.65;;
56045;SDS011;41913;51.030;3.706;2024-02-26T02:25:56;0.60;;;0.60;;
56045;SDS011;41913;51.030;3.706;2024-02-26T02:28:23;0.98;;;0.95;;
56045;SDS011;41913;51.030;3.706;2024-02-26T02:30:50;1.27;;;0.63;;
56045;SDS011;41913;51.030;3.706;2024-02-26T02:33:16;0.73;;;0.73;;
56045;SDS011;41913;51.030;3.706;2024-02-26T02:35:42;1.13;;;0.63;;
56045;SDS011;41913;51.030;3.706;2024-02-26T02:38:08;0.90;;;0.77;;
56045;SDS011;41913;51.030;3.706;2024-02-26T02:40:33;1.55;;;0.68;;
56045;SDS011;41913;51.030;3.706;2024-02-26T02:42:59;0.52;;;0.52;;
56045;SDS011;41913;51.030;3.706;2024-02-26T02:45:27;0.55;;;0.55;;
56045;SDS011;41913;51.030;3.706;2024-02-26T02:47:53;0.40;;;0.40;;
56045;SDS011;41913;51.030;3.706;2024-02-26T02:50:19;0.47;;;0.47;;
56045;SDS011;41913;51.030;3.706;2024-02-26T02:52:45;1.85;;;0.60;;
56045;SDS011;41913;51.030;3.706;2024-02-26T02:55:12;0.60;;;0.60;;
56045;SDS011;41913;51.030;3.706;2024-02-26T02:57:37;0.63;;;0.63;;
56045;SDS011;41913;51.030;3.706;2024-02-26T03:00:09;0.50;;;0.50;;
56045;SDS011;41913;51.030;3.706;2024-02-26T03:02:35;0.60;;;0.60;;
56045;SDS011;41913;51.030;3.706;2024-02-26T03:05:04;0.50;;;0.50;;
56045;SDS011;41913;51.030;3.706;2024-02-26T03:07:31;0.73;;;0.70;;
56045;SDS011;41913;51.030;3.706;2024-02-26T03:09:57;0.57;;;0.57;;
56045;SDS011;41913;51.030;3.706;2024-02-26T03:12:23;0.88;;;0.88;;
56045;SDS011;41913;51.030;3.706;2024-02-26T03:14:49;0.40;;;0.40;;
56045;SDS011;41913;51.030;3.706;2024-02-26T03:17:14;1.08;;;0.52;;
56045;SDS011;41913;51.030;3.706;2024-02-26T03:19:40;1.65;;;1.00;;
56045;SDS011;41913;51.030;3.706;2024-02-26T03:22:06;0.40;;;0.40;;
56045;SDS011;41913;51.030;3.706;2024-02-26T03:24:32;0.40;;;0.40;;
56045;SDS011;41913;51.030;3.706;2024-02-26T03:26:58;0.70;;;0.70;;
56045;SDS011;41913;51.030;3.706;2024-02-26T03:29:23;0.90;;;0.68;;
56045;SDS011;41913;51.030;3.706;2024-02-26T03:31:49;0.75;;;0.75;;
56045;SDS011;41913;51.030;3.706;2024-02-26T03:34:15;0.63;;;0.63;;
56045;SDS011;41913;51.030;3.706;2024-02-26T03:36:42;0.52;;;0.52;;
56045;SDS011;41913;51.030;3.706;2024-02-26T03:39:08;0.47;;;0.47;;
56045;SDS011;41913;51.030;3.706;2024-02-26T03:41:34;0.60;;;0.60;;
56045;SDS011;41913;51.030;3.706;2024-02-26T03:44:00;1.23;;;0.63;;
56045;SDS011;41913;51.030;3.706;2024-02-26T03:46:26;0.60;;;0.60;;
56045;SDS011;41913;51.030;3.706;2024-02-26T03:48:52;0.55;;;0.50;;
56045;SDS011;41913;51.030;3.706;2024-02-26T03:51:17;0.70;;;0.70;;
56045;SDS011;41913;51.030;3.706;2024-02-26T03:53:43;0.50;;;0.50;;
56045;SDS011;41913;51.030;3.706;2024-02-26T03:56:10;0.60;;;0.60;;
56045;SDS011;41913;51.030;3.706;2024-02-26T03:58:37;0.95;;;0.80;;
56045;SDS011;41913;51.030;3.706;2024-02-26T04:01:03;0.80;;;0.80;;
56045;SDS011;41913;51.030;3.706;2024-02-26T04:03:29;0.47;;;0.47;;
56045;SDS011;41913;51.030;3.706;2024-02-26T04:05:54;0.50;;;0.50;;
56045;SDS011;41913;51.030;3.706;2024-02-26T04:08:20;0.70;;;0.70;;
56045;SDS011;41913;51.030;3.706;2024-02-26T04:10:46;0.50;;;0.50;;
56045;SDS011;41913;51.030;3.706;2024-02-26T04:13:12;0.50;;;0.50;;
56045;SDS011;41913;51.030;3.706;2024-02-26T04:15:38;0.75;;;0.75;;
56045;SDS011;41913;51.030;3.706;2024-02-26T04:18:03;1.77;;;0.90;;
56045;SDS011;41913;51.030;3.706;2024-02-26T04:20:29;0.40;;;0.40;;
56045;SDS011;41913;51.030;3.706;2024-02-26T04:22:55;1.58;;;0.60;;
56045;SDS011;41913;51.030;3.706;2024-02-26T04:25:20;0.60;;;0.60;;
56045;SDS011;41913;51.030;3.706;2024-02-26T04:27:46;0.50;;;0.50;;
56045;SDS011;41913;51.030;3.706;2024-02-26T04:30:12;0.55;;;0.55;;
56045;SDS011;41913;51.030;3.706;2024-02-26T04:32:38;0.82;;;0.50;;
56045;SDS011;41913;51.030;3.706;2024-02-26T04:35:03;0.88;;;0.88;;
56045;SDS011;41913;51.030;3.706;2024-02-26T04:37:29;0.60;;;0.60;;
56045;SDS011;41913;51.030;3.706;2024-02-26T04:39:59;0.70;;;0.70;;
56045;SDS011;41913;51.030;3.706;2024-02-26T04:42:25;0.90;;;0.90;;
56045;SDS011;41913;51.030;3.706;2024-02-26T04:44:51;2.08;;;0.90;;
56045;SDS011;41913;51.030;3.706;2024-02-26T04:47:17;0.90;;;0.90;;
56045;SDS011;41913;51.030;3.706;2024-02-26T04:49:43;1.35;;;1.00;;
56045;SDS011;41913;51.030;3.706;2024-02-26T04:52:08;3.13;;;0.80;;
56045;SDS011;41913;51.030;3.706;2024-02-26T04:54:34;0.70;;;0.70;;
56045;SDS011;41913;51.030;3.706;2024-02-26T04:57:00;0.68;;;0.68;;
56045;SDS011;41913;51.030;3.706;2024-02-26T04:59:26;1.25;;;0.95;;
56045;SDS011;41913;51.030;3.706;2024-02-26T05:01:52;1.08;;;0.95;;
56045;SDS011;41913;51.030;3.706;2024-02-26T05:04:18;0.60;;;0.60;;
56045;SDS011;41913;51.030;3.706;2024-02-26T05:06:44;0.70;;;0.70;;
56045;SDS011;41913;51.030;3.706;2024-02-26T05:09:09;0.43;;;0.43;;
56045;SDS011;41913;51.030;3.706;2024-02-26T05:11:35;2.25;;;0.55;;
56045;SDS011;41913;51.030;3.706;2024-02-26T05:14:01;1.00;;;0.50;;
56045;SDS011;41913;51.030;3.706;2024-02-26T05:16:27;4.78;;;0.57;;
56045;SDS011;41913;51.030;3.706;2024-02-26T05:18:53;5.32;;;0.80;;
56045;SDS011;41913;51.030;3.706;2024-02-26T05:21:18;1.40;;;0.85;;
56045;SDS011;41913;51.030;3.706;2024-02-26T05:23:44;0.75;;;0.75;;
56045;SDS011;41913;51.030;3.706;2024-02-26T05:26:10;0.52;;;0.52;;
56045;SDS011;41913;51.030;3.706;2024-02-26T05:28:36;0.60;;;0.60;;
56045;SDS011;41913;51.030;3.706;2024-02-26T05:31:04;0.60;;;0.60;;
56045;SDS011;41913;51.030;3.706;2024-02-26T05:33:30;0.73;;;0.60;;
56045;SDS011;41913;51.030;3.706;2024-02-26T05:35:56;0.50;;;0.50;;
56045;SDS011;41913;51.030;3.706;2024-02-26T05:38:22;0.75;;;0.52;;
56045;SDS011;41913;51.030;3.706;2024-02-26T05:40:47;0.73;;;0.60;;
56045;SDS011;41913;51.030;3.706;2024-02-26T05:43:13;0.40;;;0.40;;
56045;SDS011;41913;51.030;3.706;2024-02-26T05:45:42;1.25;;;0.90;;
56045;SDS011;41913;51.030;3.706;2024-02-26T05:48:08;0.40;;;0.40;;
56045;SDS011;41913;51.030;3.706;2024-02-26T05:50:33;0.50;;;0.50;;
56045;SDS011;41913;51.030;3.706;2024-02-26T05:52:59;0.95;;;0.70;;
56045;SDS011;41913;51.030;3.706;2024-02-26T05:55:25;0.80;;;0.60;;
56045;SDS011;41913;51.030;3.706;2024-02-26T05:57:51;1.73;;;0.82;;
56045;SDS011;41913;51.030;3.706;2024-02-26T06:00:17;1.05;;;1.05;;
56045;SDS011;41913;51.030;3.706;2024-02-26T06:02:43;0.43;;;0.43;;
56045;SDS011;41913;51.030;3.706;2024-02-26T06:05:09;0.40;;;0.40;;
56045;SDS011;41913;51.030;3.706;2024-02-26T06:07:35;0.50;;;0.50;;
56045;SDS011;41913;51.030;3.706;2024-02-26T06:10:01;1.00;;;0.93;;
56045;SDS011;41913;51.030;3.706;2024-02-26T06:12:29;0.73;;;0.73;;
56045;SDS011;41913;51.030;3.706;2024-02-26T06:14:55;0.73;;;0.73;;
56045;SDS011;41913;51.030;3.706;2024-02-26T06:17:22;0.52;;;0.52;;
56045;SDS011;41913;51.030;3.706;2024-02-26T06:19:47;0.52;;;0.50;;
56045;SDS011;41913;51.030;3.706;2024-02-26T06:22:13;0.40;;;0.40;;
56045;SDS011;41913;51.030;3.706;2024-02-26T06:24:39;0.50;;;0.50;;
56045;SDS011;41913;51.030;3.706;2024-02-26T06:27:04;0.80;;;0.80;;
56045;SDS011;41913;51.030;3.706;2024-02-26T06:29:30;0.57;;;0.57;;
56045;SDS011;41913;51.030;3.706;2024-02-26T06:31:56;17.95;;;1.73;;
56045;SDS011;41913;51.030;3.706;2024-02-26T06:34:22;12.63;;;1.73;;
56045;SDS011;41913;51.030;3.706;2024-02-26T06:36:49;12.48;;;1.70;;
56045;SDS011;41913;51.030;3.706;2024-02-26T06:39:15;4.70;;;1.25;;
56045;SDS011;41913;51.030;3.706;2024-02-26T06:41:41;6.10;;;1.67;;
56045;SDS011;41913;51.030;3.706;2024-02-26T06:44:07;14.45;;;2.42;;
56045;SDS011;41913;51.030;3.706;2024-02-26T06:46:32;5.90;;;1.60;;
56045;SDS011;41913;51.030;3.706;2024-02-26T06:48:58;6.30;;;2.70;;
56045;SDS011;41913;51.030;3.706;2024-02-26T06:51:24;9.85;;;1.95;;
56045;SDS011;41913;51.030;3.706;2024-02-26T06:53:50;5.93;;;1.67;;
56045;SDS011;41913;51.030;3.706;2024-02-26T06:56:15;1.80;;;1.20;;
56045;SDS011;41913;51.030;3.706;2024-02-26T06:58:41;1.38;;;1.27;;
56045;SDS011;41913;51.030;3.706;2024-02-26T07:01:07;4.65;;;1.10;;
56045;SDS011;41913;51.030;3.706;2024-02-26T07:03:35;2.55;;;0.90;;
56045;SDS011;41913;51.030;3.706;2024-02-26T07:06:01;1.27;;;0.93;;
56045;SDS011;41913;51.030;3.706;2024-02-26T07:08:27;2.25;;;1.15;;
56045;SDS011;41913;51.030;3.706;2024-02-26T07:10:53;4.88;;;1.52;;
56045;SDS011;41913;51.030;3.706;2024-02-26T07:13:18;1.02;;;1.02;;
56045;SDS011;41913;51.030;3.706;2024-02-26T07:15:44;9.85;;;1.20;;
56045;SDS011;41913;51.030;3.706;2024-02-26T07:18:10;0.90;;;0.90;;
56045;SDS011;41913;51.030;3.706;2024-02-26T07:20:36;1.38;;;1.13;;
56045;SDS011;41913;51.030;3.706;2024-02-26T07:23:01;2.60;;;0.93;;
56045;SDS011;41913;51.030;3.706;2024-02-26T07:25:28;2.83;;;1.00;;
56045;SDS011;41913;51.030;3.706;2024-02-26T07:27:53;2.05;;;1.02;;
56045;SDS011;41913;51.030;3.706;2024-02-26T07:30:19;4.03;;;1.38;;
56045;SDS011;41913;51.030;3.706;2024-02-26T07:32:45;6.63;;;1.25;;
56045;SDS011;41913;51.030;3.706;2024-02-26T07:35:11;0.95;;;0.95;;
56045;SDS011;41913;51.030;3.706;2024-02-26T07:37:36;1.13;;;1.00;;
56045;SDS011;41913;51.030;3.706;2024-02-26T07:40:03;2.40;;;1.13;;
56045;SDS011;41913;51.030;3.706;2024-02-26T07:42:29;0.93;;;0.93;;
56045;SDS011;41913;51.030;3.706;2024-02-26T07:44:54;2.30;;;1.17;;
56045;SDS011;41913;51.030;3.706;2024-02-26T07:47:20;1.00;;;1.00;;
56045;SDS011;41913;51.030;3.706;2024-02-26T07:49:46;3.03;;;1.00;;
56045;SDS011;41913;51.030;3.706;2024-02-26T07:52:12;0.88;;;0.88;;
56045;SDS011;41913;51.030;3.706;2024-02-26T07:54:38;0.95;;;0.70;;
56045;SDS011;41913;51.030;3.706;2024-02-26T07:57:04;1.17;;;1.17;;
56045;SDS011;41913;51.030;3.706;2024-02-26T07:59:30;0.47;;;0.45;;
56045;SDS011;41913;51.030;3.706;2024-02-26T08:01:57;0.77;;;0.77;;
56045;SDS011;41913;51.030;3.706;2024-02-26T08:04:23;1.45;;;1.35;;
56045;SDS011;41913;51.030;3.706;2024-02-26T08:06:48;3.00;;;1.50;;
56045;SDS011;41913;51.030;3.706;2024-02-26T08:09:14;0.80;;;0.80;;
56045;SDS011;41913;51.030;3.706;2024-02-26T08:11:40;1.00;;;1.00;;
56045;SDS011;41913;51.030;3.706;2024-02-26T08:14:06;3.50;;;1.10;;
56045;SDS011;41913;51.030;3.706;2024-02-26T08:16:31;1.15;;;0.77;;
56045;SDS011;41913;51.030;3.706;2024-02-26T08:18:57;1.27;;;1.17;;
56045;SDS011;41913;51.030;3.706;2024-02-26T08:21:23;1.15;;;1.13;;
56045;SDS011;41913;51.030;3.706;2024-02-26T08:23:49;1.42;;;1.25;;
56045;SDS011;41913;51.030;3.706;2024-02-26T08:26:14;0.73;;;0.70;;
56045;SDS011;41913;51.030;3.706;2024-02-26T08:28:40;1.85;;;1.13;;
56045;SDS011;41913;51.030;3.706;2024-02-26T08:31:06;0.65;;;0.65;;
56045;SDS011;41913;51.030;3.706;2024-02-26T08:33:32;1.20;;;1.10;;
56045;SDS011;41913;51.030;3.706;2024-02-26T08:36:03;1.50;;;1.25;;
56045;SDS011;41913;51.030;3.706;2024-02-26T08:38:30;1.95;;;1.00;;
56045;SDS011;41913;51.030;3.706;2024-02-26T08:40:55;1.55;;;1.45;;
56045;SDS011;41913;51.030;3.706;2024-02-26T08:43:21;0.85;;;0.85;;
56045;SDS011;41913;51.030;3.706;2024-02-26T08:45:47;1.45;;;0.98;;
56045;SDS011;41913;51.030;3.706;2024-02-26T08:48:13;1.08;;;1.08;;
56045;SDS011;41913;51.030;3.706;2024-02-26T08:50:38;1.48;;;1.13;;
56045;SDS011;41913;51.030;3.706;2024-02-26T08:53:04;1.17;;;1.17;;
56045;SDS011;41913;51.030;3.706;2024-02-26T08:55:30;0.80;;;0.80;;
56045;SDS011;41913;51.030;3.706;2024-02-26T08:57:56;1.35;;;1.25;;
56045;SDS011;41913;51.030;3.706;2024-02-26T09:00:22;1.25;;;1.25;;
56045;SDS011;41913;51.030;3.706;2024-02-26T09:02:47;1.40;;;1.27;;
56045;SDS011;41913;51.030;3.706;2024-02-26T09:05:14;1.52;;;0.85;;
56045;SDS011;41913;51.030;3.706;2024-02-26T09:07:40;0.90;;;0.90;;
56045;SDS011;41913;51.030;3.706;2024-02-26T09:10:06;1.92;;;0.98;;
56045;SDS011;41913;51.030;3.706;2024-02-26T09:12:35;1.00;;;1.00;;
56045;SDS011;41913;51.030;3.706;2024-02-26T09:15:01;1.58;;;1.20;;
56045;SDS011;41913;51.030;3.706;2024-02-26T09:17:27;0.98;;;0.98;;
56045;SDS011;41913;51.030;3.706;2024-02-26T09:19:53;1.33;;;0.88;;
56045;SDS011;41913;51.030;3.706;2024-02-26T09:22:18;0.80;;;0.80;;
56045;SDS011;41913;51.030;3.706;2024-02-26T09:24:44;0.75;;;0.75;;
56045;SDS011;41913;51.030;3.706;2024-02-26T09:27:10;1.27;;;1.17;;
56045;SDS011;41913;51.030;3.706;2024-02-26T09:29:35;1.00;;;1.00;;
56045;SDS011;41913;51.030;3.706;2024-02-26T09:32:01;3.42;;;0.95;;
56045;SDS011;41913;51.030;3.706;2024-02-26T09:34:28;0.77;;;0.77;;
56045;SDS011;41913;51.030;3.706;2024-02-26T09:36:54;0.82;;;0.82;;
56045;SDS011;41913;51.030;3.706;2024-02-26T09:39:20;1.23;;;1.05;;
56045;SDS011;41913;51.030;3.706;2024-02-26T09:41:47;1.55;;;1.45;;
56045;SDS011;41913;51.030;3.706;2024-02-26T09:44:18;1.85;;;1.23;;
56045;SDS011;41913;51.030;3.706;2024-02-26T09:46:47;1.30;;;1.30;;
56045;SDS011;41913;51.030;3.706;2024-02-26T09:49:17;1.15;;;1.05;;
56045;SDS011;41913;51.030;3.706;2024-02-26T09:51:45;1.10;;;1.05;;
56045;SDS011;41913;51.030;3.706;2024-02-26T09:54:12;1.50;;;1.30;;
56045;SDS011;41913;51.030;3.706;2024-02-26T09:56:39;1.48;;;1.30;;
56045;SDS011;41913;51.030;3.706;2024-02-26T09:59:08;1.08;;;1.08;;
56045;SDS011;41913;51.030;3.706;2024-02-26T10:04:05;1.23;;;1.20;;
56045;SDS011;41913;51.030;3.706;2024-02-26T10:06:33;2.55;;;1.55;;
56045;SDS011;41913;51.030;3.706;2024-02-26T10:09:01;1.17;;;1.17;;
56045;SDS011;41913;51.030;3.706;2024-02-26T10:11:31;1.08;;;1.08;;
56045;SDS011;41913;51.030;3.706;2024-02-26T10:13:57;5.22;;;1.30;;
56045;SDS011;41913;51.030;3.706;2024-02-26T10:16:23;2.33;;;1.50;;
56045;SDS011;41913;51.030;3.706;2024-02-26T10:18:51;3.30;;;1.30;;
56045;SDS011;41913;51.030;3.706;2024-02-26T10:21:20;4.82;;;1.42;;
56045;SDS011;41913;51.030;3.706;2024-02-26T10:23:48;1.17;;;1.13;;
56045;SDS011;41913;51.030;3.706;2024-02-26T10:26:15;1.85;;;1.48;;
56045;SDS011;41913;51.030;3.706;2024-02-26T10:28:42;4.85;;;1.55;;
56045;SDS011;41913;51.030;3.706;2024-02-26T10:31:09;1.23;;;1.13;;
56045;SDS011;41913;51.030;3.706;2024-02-26T10:33:35;1.20;;;1.10;;
56045;SDS011;41913;51.030;3.706;2024-02-26T10:36:05;2.10;;;1.92;;
56045;SDS011;41913;51.030;3.706;2024-02-26T10:38:33;3.35;;;1.75;;
56045;SDS011;41913;51.030;3.706;2024-02-26T10:41:06;2.00;;;1.77;;
56045;SDS011;41913;51.030;3.706;2024-02-26T10:43:33;3.15;;;1.85;;
56045;SDS011;41913;51.030;3.706;2024-02-26T10:45:59;3.50;;;1.45;;
56045;SDS011;41913;51.030;3.706;2024-02-26T10:48:25;1.48;;;1.40;;
56045;SDS011;41913;51.030;3.706;2024-02-26T10:50:51;1.70;;;1.60;;
56045;SDS011;41913;51.030;3.706;2024-02-26T10:53:20;1.77;;;1.67;;
56045;SDS011;41913;51.030;3.706;2024-02-26T10:55:54;1.63;;;1.20;;
56045;SDS011;41913;51.030;3.706;2024-02-26T10:58:22;1.77;;;1.67;;
56045;SDS011;41913;51.030;3.706;2024-02-26T11:00:50;1.63;;;1.63;;
56045;SDS011;41913;51.030;3.706;2024-02-26T11:03:16;1.60;;;1.50;;
56045;SDS011;41913;51.030;3.706;2024-02-26T11:05:45;1.65;;;1.55;;
56045;SDS011;41913;51.030;3.706;2024-02-26T11:08:15;3.92;;;1.67;;
56045;SDS011;41913;51.030;3.706;2024-02-26T11:10:48;1.92;;;1.83;;
56045;SDS011;41913;51.030;3.706;2024-02-26T11:15:47;1.83;;;1.73;;
56045;SDS011;41913;51.030;3.706;2024-02-26T11:18:16;2.10;;;2.00;;
56045;SDS011;41913;51.030;3.706;2024-02-26T11:20:44;2.10;;;1.92;;
56045;SDS011;41913;51.030;3.706;2024-02-26T11:23:11;2.28;;;1.77;;
56045;SDS011;41913;51.030;3.706;2024-02-26T11:25:37;1.98;;;1.88;;
56045;SDS011;41913;51.030;3.706;2024-02-26T11:28:05;1.83;;;1.73;;
56045;SDS011;41913;51.030;3.706;2024-02-26T11:30:36;2.42;;;2.33;;
56045;SDS011;41913;51.030;3.706;2024-02-26T11:33:08;2.90;;;2.15;;
56045;SDS011;41913;51.030;3.706;2024-02-26T11:35:36;2.10;;;2.00;;
56045;SDS011;41913;51.030;3.706;2024-02-26T11:38:02;2.03;;;1.92;;
56045;SDS011;41913;51.030;3.706;2024-02-26T11:40:30;2.70;;;2.50;;
56045;SDS011;41913;51.030;3.706;2024-02-26T11:42:57;2.05;;;1.95;;
56045;SDS011;41913;51.030;3.706;2024-02-26T11:48:10;2.40;;;2.30;;
56045;SDS011;41913;51.030;3.706;2024-02-26T11:50:41;2.70;;;2.50;;
56045;SDS011;41913;51.030;3.706;2024-02-26T11:55:48;2.20;;;2.13;;
56045;SDS011;41913;51.030;3.706;2024-02-26T11:59:03;1.88;;;1.77;;
56045;SDS011;41913;51.030;3.706;2024-02-26T12:01:38;2.17;;;2.07;;
56045;SDS011;41913;51.030;3.706;2024-02-26T12:04:17;2.53;;;2.33;;
56045;SDS011;41913;51.030;3.706;2024-02-26T12:07:02;2.22;;;2.03;;
56045;SDS011;41913;51.030;3.706;2024-02-26T12:09:35;1.80;;;1.70;;
56045;SDS011;41913;51.030;3.706;2024-02-26T12:12:09;1.83;;;1.73;;
56045;SDS011;41913;51.030;3.706;2024-02-26T12:14:52;1.67;;;1.67;;
56045;SDS011;41913;51.030;3.706;2024-02-26T12:19:45;1.55;;;1.50;;
56045;SDS011;41913;51.030;3.706;2024-02-26T12:22:12;1.45;;;1.45;;
56045;SDS011;41913;51.030;3.706;2024-02-26T12:24:39;1.48;;;1.42;;
56045;SDS011;41913;51.030;3.706;2024-02-26T12:27:05;1.33;;;1.33;;
56045;SDS011;41913;51.030;3.706;2024-02-26T12:29:31;1.20;;;1.20;;
56045;SDS011;41913;51.030;3.706;2024-02-26T12:31:57;1.27;;;1.20;;
56045;SDS011;41913;51.030;3.706;2024-02-26T12:34:23;1.52;;;1.42;;
56045;SDS011;41913;51.030;3.706;2024-02-26T12:36:50;2.35;;;1.30;;
56045;SDS011;41913;51.030;3.706;2024-02-26T12:39:16;1.40;;;1.40;;
56045;SDS011;41913;51.030;3.706;2024-02-26T12:41:42;1.40;;;1.40;;
56045;SDS011;41913;51.030;3.706;2024-02-26T12:44:14;1.05;;;1.05;;
56045;SDS011;41913;51.030;3.706;2024-02-26T12:46:43;1.85;;;0.93;;
56045;SDS011;41913;51.030;3.706;2024-02-26T12:49:14;0.85;;;0.85;;
56045;SDS011;41913;51.030;3.706;2024-02-26T12:51:41;0.80;;;0.80;;
56045;SDS011;41913;51.030;3.706;2024-02-26T12:54:07;1.55;;;1.48;;
56045;SDS011;41913;51.030;3.706;2024-02-26T12:56:34;1.08;;;1.08;;
56045;SDS011;41913;51.030;3.706;2024-02-26T12:59:00;0.93;;;0.93;;
56045;SDS011;41913;51.030;3.706;2024-02-26T13:01:27;0.80;;;0.80;;
56045;SDS011;41913;51.030;3.706;2024-02-26T13:03:53;0.90;;;0.90;;
56045;SDS011;41913;51.030;3.706;2024-02-26T13:06:19;1.30;;;1.20;;
56045;SDS011;41913;51.030;3.706;2024-02-26T13:08:46;0.63;;;0.63;;
56045;SDS011;41913;51.030;3.706;2024-02-26T13:11:13;1.92;;;1.00;;
56045;SDS011;41913;51.030;3.706;2024-02-26T13:13:39;1.10;;;1.10;;
56045;SDS011;41913;51.030;3.706;2024-02-26T13:16:05;1.83;;;1.13;;
56045;SDS011;41913;51.030;3.706;2024-02-26T13:18:33;1.48;;;1.38;;
56045;SDS011;41913;51.030;3.706;2024-02-26T13:21:10;1.15;;;1.05;;
56045;SDS011;41913;51.030;3.706;2024-02-26T13:23:40;1.30;;;1.02;;
56045;SDS011;41913;51.030;3.706;2024-02-26T13:26:07;2.60;;;1.10;;
56045;SDS011;41913;51.030;3.706;2024-02-26T13:28:33;1.75;;;1.48;;
56045;SDS011;41913;51.030;3.706;2024-02-26T13:31:00;1.15;;;0.95;;
56045;SDS011;41913;51.030;3.706;2024-02-26T13:33:27;2.00;;;1.45;;
56045;SDS011;41913;51.030;3.706;2024-02-26T13:35:54;2.03;;;1.35;;
56045;SDS011;41913;51.030;3.706;2024-02-26T13:38:21;1.55;;;1.30;;
56045;SDS011;41913;51.030;3.706;2024-02-26T13:40:49;2.33;;;1.23;;
56045;SDS011;41913;51.030;3.706;2024-02-26T13:43:15;1.27;;;1.27;;
56045;SDS011;41913;51.030;3.706;2024-02-26T13:45:41;1.08;;;1.08;;
56045;SDS011;41913;51.030;3.706;2024-02-26T13:48:08;1.48;;;1.17;;
56045;SDS011;41913;51.030;3.706;2024-02-26T13:50:36;0.90;;;0.88;;
56045;SDS011;41913;51.030;3.706;2024-02-26T13:53:03;0.70;;;0.70;;
56045;SDS011;41913;51.030;3.706;2024-02-26T13:55:30;0.80;;;0.80;;
56045;SDS011;41913;51.030;3.706;2024-02-26T13:57:57;1.13;;;1.13;;
56045;SDS011;41913;51.030;3.706;2024-02-26T14:00:25;1.98;;;1.10;;
56045;SDS011;41913;51.030;3.706;2024-02-26T14:02:51;1.00;;;1.00;;
56045;SDS011;41913;51.030;3.706;2024-02-26T14:05:17;0.80;;;0.75;;
56045;SDS011;41913;51.030;3.706;2024-02-26T14:07:43;0.85;;;0.80;;
56045;SDS011;41913;51.030;3.706;2024-02-26T14:10:11;1.90;;;1.17;;
56045;SDS011;41913;51.030;3.706;2024-02-26T14:12:37;0.90;;;0.90;;
56045;SDS011;41913;51.030;3.706;2024-02-26T14:15:04;0.82;;;0.82;;
56045;SDS011;41913;51.030;3.706;2024-02-26T14:17:32;2.10;;;1.48;;
56045;SDS011;41913;51.030;3.706;2024-02-26T14:19:58;1.02;;;0.93;;
56045;SDS011;41913;51.030;3.706;2024-02-26T14:22:24;1.35;;;0.98;;
56045;SDS011;41913;51.030;3.706;2024-02-26T14:24:52;0.90;;;0.90;;
56045;SDS011;41913;51.030;3.706;2024-02-26T14:27:18;0.70;;;0.70;;
56045;SDS011;41913;51.030;3.706;2024-02-26T14:29:47;0.88;;;0.80;;
56045;SDS011;41913;51.030;3.706;2024-02-26T14:32:13;0.63;;;0.63;;
56045;SDS011;41913;51.030;3.706;2024-02-26T14:34:39;0.65;;;0.65;;
56045;SDS011;41913;51.030;3.706;2024-02-26T14:37:05;0.82;;;0.82;;
56045;SDS011;41913;51.030;3.706;2024-02-26T14:39:31;0.77;;;0.77;;
56045;SDS011;41913;51.030;3.706;2024-02-26T14:41:58;0.80;;;0.80;;
56045;SDS011;41913;51.030;3.706;2024-02-26T14:44:24;1.05;;;0.77;;
56045;SDS011;41913;51.030;3.706;2024-02-26T14:46:50;0.93;;;0.93;;
56045;SDS011;41913;51.030;3.706;2024-02-26T14:49:16;0.70;;;0.70;;
56045;SDS011;41913;51.030;3.706;2024-02-26T14:51:43;0.95;;;0.95;;
56045;SDS011;41913;51.030;3.706;2024-02-26T14:54:12;0.80;;;0.80;;
56045;SDS011;41913;51.030;3.706;2024-02-26T14:56:39;0.95;;;0.95;;
56045;SDS011;41913;51.030;3.706;2024-02-26T14:59:05;0.77;;;0.77;;